createdAt,value
2022-09-06T00:01:18.353Z,3.42
2022-09-06T00:03:47.721Z,3.40
2022-09-06T00:06:21.438Z,3.08
2022-09-06T00:08:50.501Z,3.40
2022-09-06T00:11:19.435Z,3.13
2022-09-06T00:13:48.529Z,2.80
2022-09-06T00:16:29.650Z,3.08
2022-09-06T00:18:59.453Z,3.75
2022-09-06T00:21:34.101Z,3.72
2022-09-06T00:24:03.891Z,3.53
2022-09-06T00:26:32.284Z,3.30
2022-09-06T00:29:04.082Z,3.47
2022-09-06T00:31:36.038Z,3.60
2022-09-06T00:34:04.628Z,3.45
2022-09-06T00:36:34.751Z,3.10
2022-09-06T00:39:03.265Z,4.25
2022-09-06T00:41:31.753Z,3.13
2022-09-06T00:44:00.572Z,2.90
2022-09-06T00:46:37.580Z,3.00
2022-09-06T00:49:10.433Z,3.25
2022-09-06T00:51:41.298Z,2.85
2022-09-06T00:54:12.922Z,2.90
2022-09-06T00:56:44.643Z,2.60
2022-09-06T00:59:13.239Z,2.90
2022-09-06T01:01:41.705Z,2.95
2022-09-06T01:04:10.667Z,2.70
2022-09-06T01:06:51.393Z,2.80
2022-09-06T01:09:34.101Z,2.92
2022-09-06T01:12:20.719Z,2.60
2022-09-06T01:15:06.518Z,3.15
2022-09-06T01:17:46.513Z,2.60
2022-09-06T01:20:41.849Z,2.78
2022-09-06T01:23:45.067Z,3.35
2022-09-06T01:26:38.094Z,2.85
2022-09-06T01:29:14.349Z,3.28
2022-09-06T01:31:49.475Z,4.03
2022-09-06T01:34:25.397Z,3.53
2022-09-06T01:37:09.986Z,3.10
2022-09-06T01:39:41.571Z,4.30
2022-09-06T01:42:14.513Z,4.10
2022-09-06T01:44:49.144Z,3.58
2022-09-06T01:47:37.263Z,3.83
2022-09-06T01:50:38.871Z,3.83
2022-09-06T01:53:23.085Z,3.60
2022-09-06T01:55:59.609Z,3.42
2022-09-06T01:58:50.033Z,3.40
2022-09-06T02:01:27.072Z,4.50
2022-09-06T02:04:01.838Z,4.38
2022-09-06T02:06:34.265Z,4.60
2022-09-06T02:09:07.562Z,4.20
2022-09-06T02:11:43.052Z,4.32
2022-09-06T02:14:17.079Z,4.20
2022-09-06T02:16:50.656Z,4.13
2022-09-06T02:19:24.793Z,3.80
2022-09-06T02:21:56.541Z,4.20
2022-09-06T02:24:30.486Z,3.55
2022-09-06T02:27:00.019Z,3.67
2022-09-06T02:29:28.368Z,3.97
2022-09-06T02:32:02.706Z,3.40
2022-09-06T02:34:31.677Z,3.33
2022-09-06T02:37:01.388Z,3.60
2022-09-06T02:39:29.844Z,3.97
2022-09-06T02:41:59.001Z,3.45
2022-09-06T02:44:27.318Z,3.58
2022-09-06T02:46:57.243Z,4.53
2022-09-06T02:49:27.235Z,3.63
2022-09-06T02:51:55.571Z,3.53
2022-09-06T02:54:24.050Z,3.53
2022-09-06T02:56:52.694Z,4.07
2022-09-06T02:59:21.193Z,3.90
2022-09-06T03:01:49.564Z,3.53
2022-09-06T03:04:17.885Z,4.20
2022-09-06T03:06:47.612Z,3.67
2022-09-06T03:09:15.930Z,3.65
2022-09-06T03:11:44.410Z,4.10
2022-09-06T03:14:12.624Z,3.97
2022-09-06T03:16:40.981Z,3.80
2022-09-06T03:19:09.341Z,4.82
2022-09-06T03:21:37.702Z,4.72
2022-09-06T03:24:08.075Z,4.78
2022-09-06T03:26:36.286Z,4.35
2022-09-06T03:29:04.696Z,4.65
2022-09-06T03:31:33.028Z,4.30
2022-09-06T03:34:01.245Z,4.40
2022-09-06T03:36:29.650Z,3.97
2022-09-06T03:38:59.081Z,4.35
2022-09-06T03:41:28.767Z,4.53
2022-09-06T03:43:58.307Z,4.63
2022-09-06T03:46:30.384Z,4.45
2022-09-06T03:49:02.043Z,4.53
2022-09-06T03:51:30.491Z,4.63
2022-09-06T03:53:59.333Z,4.13
2022-09-06T03:56:30.416Z,4.18
2022-09-06T03:58:58.836Z,4.68
2022-09-06T04:01:27.742Z,4.88
2022-09-06T04:03:56.271Z,4.55
2022-09-06T04:06:24.581Z,4.25
2022-09-06T04:08:52.897Z,4.78
2022-09-06T04:11:21.489Z,7.85
2022-09-06T04:13:51.197Z,7.32
2022-09-06T04:16:19.857Z,7.43
2022-09-06T04:18:48.325Z,7.28
2022-09-06T04:21:16.651Z,7.57
2022-09-06T04:23:44.967Z,10.23
2022-09-06T04:26:13.383Z,11.00
2022-09-06T04:28:41.884Z,9.82
2022-09-06T04:31:11.688Z,10.30
2022-09-06T04:33:40.391Z,11.32
2022-09-06T04:36:10.921Z,12.05
2022-09-06T04:38:40.830Z,9.98
2022-09-06T04:41:10.120Z,9.70
2022-09-06T04:43:38.618Z,12.85
2022-09-06T04:46:12.714Z,10.68
2022-09-06T04:48:42.547Z,11.40
2022-09-06T04:51:10.772Z,10.30
2022-09-06T04:53:39.057Z,11.75
2022-09-06T04:56:07.703Z,11.57
2022-09-06T04:58:35.993Z,13.20
2022-09-06T05:01:04.434Z,12.13
2022-09-06T05:03:32.910Z,18.45
2022-09-06T05:06:11.520Z,14.52
2022-09-06T05:08:40.552Z,13.15
2022-09-06T05:11:10.973Z,14.90
2022-09-06T05:13:39.878Z,11.45
2022-09-06T05:16:10.038Z,10.65
2022-09-06T05:18:38.697Z,11.40
2022-09-06T05:21:07.711Z,11.23
2022-09-06T05:23:37.609Z,11.70
2022-09-06T05:26:06.248Z,13.02
2022-09-06T05:28:34.632Z,11.73
2022-09-06T05:31:09.870Z,9.85
2022-09-06T05:33:38.673Z,10.63
2022-09-06T05:36:08.158Z,11.30
2022-09-06T05:38:37.964Z,12.13
2022-09-06T05:41:06.484Z,11.80
2022-09-06T05:43:34.919Z,11.07
2022-09-06T05:46:06.653Z,10.85
2022-09-06T05:48:37.158Z,12.18
2022-09-06T05:51:07.719Z,11.25
2022-09-06T05:53:39.088Z,11.32
2022-09-06T05:56:08.181Z,10.80
2022-09-06T05:58:38.337Z,9.75
2022-09-06T06:01:08.940Z,10.80
2022-09-06T06:03:37.383Z,9.77
2022-09-06T06:06:08.934Z,8.25
2022-09-06T06:08:38.928Z,8.20
2022-09-06T06:11:07.231Z,8.95
2022-09-06T06:13:39.563Z,8.82
2022-09-06T06:16:09.567Z,8.15
2022-09-06T06:18:38.525Z,7.60
2022-09-06T06:21:11.232Z,7.00
2022-09-06T06:23:47.879Z,7.68
2022-09-06T06:26:16.670Z,8.77
2022-09-06T06:28:45.203Z,8.60
2022-09-06T06:31:14.683Z,8.18
2022-09-06T06:33:44.389Z,9.80
2022-09-06T06:36:21.828Z,14.50
2022-09-06T06:38:55.622Z,12.67
2022-09-06T06:41:28.271Z,11.52
2022-09-06T06:43:58.786Z,9.48
2022-09-06T06:46:28.679Z,9.35
2022-09-06T06:48:59.734Z,11.25
2022-09-06T06:51:31.503Z,10.90
2022-09-06T06:54:01.427Z,10.63
2022-09-06T06:56:31.659Z,10.05
2022-09-06T06:59:02.348Z,10.60
2022-09-06T07:01:33.510Z,11.90
2022-09-06T07:04:02.194Z,11.93
2022-09-06T07:09:22.240Z,11.38
2022-09-06T07:11:50.992Z,11.13
2022-09-06T07:14:20.005Z,10.05
2022-09-06T07:16:48.262Z,9.40
2022-09-06T07:22:05.900Z,7.35
2022-09-06T07:24:36.144Z,7.55
2022-09-06T07:29:53.212Z,6.53
2022-09-06T07:32:21.472Z,6.30
2022-09-06T07:34:50.283Z,5.97
2022-09-06T07:37:19.332Z,6.25
2022-09-06T07:39:51.127Z,6.05
2022-09-06T07:42:19.802Z,5.60
2022-09-06T07:44:49.856Z,5.35
2022-09-06T07:55:40.499Z,4.55
2022-09-06T07:58:08.794Z,4.75
2022-09-06T08:00:38.443Z,5.15
2022-09-06T08:03:06.939Z,4.55
2022-09-06T08:11:16.055Z,4.38
2022-09-06T08:13:44.785Z,3.97
2022-09-06T08:16:14.101Z,4.05
2022-09-06T08:18:42.392Z,4.10
2022-09-06T08:21:13.132Z,3.20
2022-09-06T08:23:45.567Z,3.45
2022-09-06T08:26:18.845Z,3.42
2022-09-06T08:28:47.358Z,2.90
2022-09-06T08:31:17.406Z,3.33
2022-09-06T08:33:47.633Z,2.35
2022-09-06T08:36:16.585Z,2.55
2022-09-06T08:38:45.690Z,2.75
2022-09-06T08:41:25.618Z,2.45
2022-09-06T08:46:55.084Z,2.25
2022-09-06T08:49:25.641Z,2.50
2022-09-06T08:52:31.853Z,3.08
2022-09-06T08:55:18.670Z,2.75
2022-09-06T08:58:02.462Z,1.60
2022-09-06T09:00:32.415Z,1.70
2022-09-06T09:03:07.385Z,1.40
2022-09-06T09:05:38.001Z,1.55
2022-09-06T09:08:16.071Z,1.45
2022-09-06T09:10:59.952Z,1.42
2022-09-06T09:13:35.328Z,1.83
2022-09-06T09:16:03.892Z,1.77
2022-09-06T09:18:35.081Z,1.70
2022-09-06T09:21:04.161Z,1.40
2022-09-06T09:23:46.196Z,1.40
2022-09-06T09:26:16.598Z,1.83
2022-09-06T09:29:08.611Z,1.63
2022-09-06T09:31:39.458Z,1.83
2022-09-06T09:34:12.527Z,1.35
2022-09-06T09:39:36.911Z,1.60
2022-09-06T09:42:05.885Z,1.33
2022-09-06T09:44:35.800Z,2.60
2022-09-06T09:47:23.097Z,1.50
2022-09-06T09:49:51.596Z,1.52
2022-09-06T09:52:27.622Z,1.58
2022-09-06T09:54:58.827Z,1.63
2022-09-06T09:57:28.223Z,1.30
2022-09-06T10:00:01.193Z,1.40
2022-09-06T10:02:33.351Z,1.42
2022-09-06T10:05:03.858Z,1.45
2022-09-06T10:07:33.967Z,1.20
2022-09-06T10:10:05.305Z,1.38
2022-09-06T10:12:35.452Z,1.27
2022-09-06T10:15:07.477Z,1.23
2022-09-06T10:17:38.001Z,1.30
2022-09-06T10:20:09.432Z,1.63
2022-09-06T10:22:52.676Z,1.38
2022-09-06T10:25:39.645Z,1.50
2022-09-06T10:28:32.674Z,1.50
2022-09-06T10:31:13.971Z,1.60
2022-09-06T10:33:56.199Z,1.20
2022-09-06T10:36:31.108Z,1.60
2022-09-06T10:39:04.139Z,1.13
2022-09-06T10:41:44.274Z,1.08
2022-09-06T10:44:24.317Z,1.23
2022-09-06T10:47:05.763Z,1.17
2022-09-06T10:49:36.805Z,2.35
2022-09-06T10:52:09.654Z,1.33
2022-09-06T10:54:42.186Z,1.75
2022-09-06T11:00:12.921Z,1.20
2022-09-06T11:02:48.562Z,1.45
2022-09-06T11:11:07.411Z,1.40
2022-09-06T11:13:35.962Z,1.33
2022-09-06T11:16:10.692Z,1.30
2022-09-06T11:18:45.789Z,1.75
2022-09-06T11:21:37.895Z,1.40
2022-09-06T11:24:13.098Z,1.40
2022-09-06T11:26:45.530Z,1.10
2022-09-06T11:29:21.022Z,1.40
2022-09-06T11:34:54.887Z,1.25
2022-09-06T11:37:29.260Z,1.63
2022-09-06T11:40:29.505Z,0.98
2022-09-06T11:43:17.801Z,1.60
2022-09-06T11:45:49.314Z,1.83
2022-09-06T11:49:01.112Z,1.33
2022-09-06T11:51:37.550Z,1.30
2022-09-06T11:54:29.120Z,1.60
2022-09-06T11:57:02.360Z,1.40
2022-09-06T11:59:37.876Z,1.50
2022-09-06T12:02:08.505Z,1.30
2022-09-06T12:05:09.718Z,1.60
2022-09-06T12:08:00.410Z,1.48
2022-09-06T12:11:07.103Z,1.40
2022-09-06T12:13:42.440Z,1.60
2022-09-06T12:16:12.381Z,1.45
2022-09-06T12:18:59.085Z,1.40
2022-09-06T12:21:46.152Z,1.45
2022-09-06T12:24:53.276Z,1.15
2022-09-06T12:27:24.201Z,1.73
2022-09-06T12:29:58.092Z,1.65
2022-09-06T12:32:32.639Z,1.38
2022-09-06T12:37:57.826Z,1.40
2022-09-06T12:40:28.463Z,1.58
2022-09-06T12:42:58.560Z,1.95
2022-09-06T12:45:27.783Z,1.75
2022-09-06T12:48:07.068Z,1.35
2022-09-06T12:50:35.776Z,2.10
2022-09-06T12:53:20.408Z,1.50
2022-09-06T12:56:04.365Z,1.92
2022-09-06T12:58:34.242Z,1.90
2022-09-06T13:01:09.960Z,1.70
2022-09-06T13:03:45.199Z,1.58
2022-09-06T13:06:26.040Z,1.80
2022-09-06T13:08:58.010Z,2.10
2022-09-06T13:11:30.959Z,1.70
2022-09-06T13:14:02.693Z,1.90
2022-09-06T13:16:43.955Z,1.58
2022-09-06T13:19:32.320Z,1.92
2022-09-06T13:22:01.243Z,2.60
2022-09-06T13:24:46.919Z,1.60
2022-09-06T13:27:27.452Z,1.70
2022-09-06T13:29:58.914Z,1.80
2022-09-06T13:32:28.666Z,2.00
2022-09-06T13:35:00.214Z,1.77
2022-09-06T13:37:31.191Z,1.60
2022-09-06T13:40:00.021Z,1.73
2022-09-06T13:42:31.093Z,1.83
2022-09-06T13:45:17.745Z,1.88
2022-09-06T13:47:46.158Z,2.05
2022-09-06T13:50:14.855Z,2.08
2022-09-06T13:52:43.401Z,2.10
2022-09-06T13:55:15.831Z,1.88
2022-09-06T13:57:44.298Z,2.53
2022-09-06T14:00:15.706Z,1.92
2022-09-06T14:02:46.473Z,2.00
2022-09-06T14:05:15.100Z,2.03
2022-09-06T14:07:43.274Z,1.98
2022-09-06T14:10:12.391Z,5.80
2022-09-06T14:12:40.757Z,2.50
2022-09-06T14:15:10.069Z,2.33
2022-09-06T14:17:39.744Z,2.03
2022-09-06T14:20:09.471Z,2.13
2022-09-06T14:22:37.799Z,1.60
2022-09-06T14:25:07.808Z,1.73
2022-09-06T14:27:36.431Z,2.30
2022-09-06T14:30:05.833Z,2.67
2022-09-06T14:32:34.344Z,1.90
2022-09-06T14:35:05.857Z,2.17
2022-09-06T14:37:35.245Z,2.17
2022-09-06T14:40:03.712Z,2.45
2022-09-06T14:42:31.964Z,1.98
2022-09-06T14:45:00.603Z,2.28
2022-09-06T14:47:29.137Z,1.98
2022-09-06T14:49:58.429Z,1.70
2022-09-06T14:52:28.433Z,1.95
2022-09-06T14:54:56.949Z,2.80
2022-09-06T14:57:25.287Z,2.20
2022-09-06T14:59:53.640Z,1.60
2022-09-06T15:02:22.097Z,1.80
2022-09-06T15:04:50.372Z,2.20
2022-09-06T15:07:19.685Z,2.15
2022-09-06T15:09:50.965Z,1.95
2022-09-06T15:12:19.835Z,1.75
2022-09-06T15:14:48.213Z,1.80
2022-09-06T15:17:16.643Z,1.50
2022-09-06T15:19:45.925Z,1.90
2022-09-06T15:22:14.285Z,1.80
2022-09-06T15:24:42.774Z,1.45
2022-09-06T15:27:12.486Z,1.40
2022-09-06T15:29:42.107Z,1.40
2022-09-06T15:32:10.413Z,1.90
2022-09-06T15:34:38.696Z,1.50
2022-09-06T15:37:07.109Z,1.40
2022-09-06T15:39:35.460Z,1.50
2022-09-06T15:42:03.929Z,1.65
2022-09-06T15:44:34.338Z,1.15
2022-09-06T15:47:02.861Z,1.75
2022-09-06T15:49:32.776Z,1.38
2022-09-06T15:52:03.663Z,1.55
2022-09-06T15:54:49.419Z,1.10
2022-09-06T15:57:18.514Z,1.33
2022-09-06T15:59:48.319Z,1.42
2022-09-06T16:02:16.969Z,1.27
2022-09-06T16:04:46.939Z,1.77
2022-09-06T16:07:15.558Z,1.50
2022-09-06T16:09:44.045Z,1.42
2022-09-06T16:12:12.384Z,1.40
2022-09-06T16:14:40.689Z,1.67
2022-09-06T16:17:12.272Z,1.88
2022-09-06T16:19:40.993Z,1.35
2022-09-06T16:22:09.358Z,1.33
2022-09-06T16:24:39.203Z,1.35
2022-09-06T16:27:07.751Z,1.35
2022-09-06T16:29:36.257Z,1.20
2022-09-06T16:32:04.760Z,0.90
2022-09-06T16:34:34.886Z,1.00
2022-09-06T16:37:07.790Z,1.17
2022-09-06T16:39:36.319Z,1.17
2022-09-06T16:42:05.006Z,1.38
2022-09-06T16:44:33.927Z,1.52
2022-09-06T16:47:04.070Z,1.58
2022-09-06T16:49:32.437Z,1.42
2022-09-06T16:52:02.859Z,1.67
2022-09-06T16:54:31.160Z,1.13
2022-09-06T16:56:59.574Z,1.05
2022-09-06T16:59:27.930Z,1.40
2022-09-06T17:01:56.880Z,1.30
2022-09-06T17:04:25.612Z,1.73
2022-09-06T17:06:55.207Z,2.00
2022-09-06T17:09:24.939Z,1.20
2022-09-06T17:11:53.428Z,1.70
2022-09-06T17:14:21.773Z,1.95
2022-09-06T17:17:07.288Z,1.75
2022-09-06T17:19:37.824Z,1.77
2022-09-06T17:22:06.696Z,1.55
2022-09-06T17:24:36.933Z,1.58
2022-09-06T17:27:05.897Z,1.70
2022-09-06T17:29:34.962Z,2.25
2022-09-06T17:32:04.759Z,2.15
2022-09-06T17:34:33.428Z,1.60
2022-09-06T17:37:02.050Z,2.13
2022-09-06T17:39:30.978Z,1.65
2022-09-06T17:42:02.270Z,1.67
2022-09-06T17:44:31.108Z,2.20
2022-09-06T17:47:14.814Z,1.80
2022-09-06T17:49:43.597Z,2.42
2022-09-06T17:52:12.604Z,1.92
2022-09-06T17:54:41.230Z,2.60
2022-09-06T17:57:11.056Z,2.17
2022-09-06T17:59:39.963Z,2.97
2022-09-06T18:02:08.902Z,3.15
2022-09-06T18:04:38.550Z,2.72
2022-09-06T18:07:07.152Z,2.63
2022-09-06T18:09:36.977Z,2.65
2022-09-06T18:12:06.821Z,1.77
2022-09-06T18:14:36.884Z,2.10
2022-09-06T18:17:05.577Z,1.92
2022-09-06T18:19:33.948Z,2.38
2022-09-06T18:22:04.583Z,2.50
2022-09-06T18:24:33.391Z,2.10
2022-09-06T18:27:03.974Z,2.33
2022-09-06T18:29:32.985Z,2.33
2022-09-06T18:32:03.278Z,2.75
2022-09-06T18:34:32.495Z,2.65
2022-09-06T18:37:00.818Z,2.88
2022-09-06T18:39:29.561Z,2.80
2022-09-06T18:42:00.756Z,2.70
2022-09-06T18:44:32.558Z,2.47
2022-09-06T18:47:05.273Z,2.38
2022-09-06T18:49:34.771Z,1.98
2022-09-06T18:52:04.000Z,2.38
2022-09-06T18:54:33.490Z,2.20
2022-09-06T18:57:01.817Z,2.72
2022-09-06T18:59:30.119Z,2.58
2022-09-06T19:02:01.389Z,2.38
2022-09-06T19:04:33.994Z,2.75
2022-09-06T19:07:02.553Z,2.60
2022-09-06T19:09:30.843Z,2.50
2022-09-06T19:11:59.265Z,2.45
2022-09-06T19:14:28.335Z,2.45
2022-09-06T19:16:58.586Z,2.50
2022-09-06T19:19:33.796Z,2.30
2022-09-06T19:22:03.003Z,2.97
2022-09-06T19:24:32.127Z,2.55
2022-09-06T19:27:00.807Z,2.70
2022-09-06T19:29:29.449Z,2.78
2022-09-06T19:31:58.335Z,2.95
2022-09-06T19:34:27.205Z,2.70
2022-09-06T19:36:57.283Z,7.82
2022-09-06T19:39:32.243Z,3.60
2022-09-06T19:42:04.899Z,3.40
2022-09-06T19:44:33.813Z,3.05
2022-09-06T19:47:05.734Z,2.95
2022-09-06T19:49:36.525Z,3.07
2022-09-06T19:52:09.668Z,2.63
2022-09-06T19:54:40.387Z,3.03
2022-09-06T19:57:09.023Z,2.70
2022-09-06T19:59:37.489Z,2.55
2022-09-06T20:02:09.610Z,2.40
2022-09-06T20:04:38.908Z,2.38
2022-09-06T20:07:09.873Z,2.17
2022-09-06T20:09:38.638Z,2.17
2022-09-06T20:12:07.733Z,2.05
2022-09-06T20:14:36.103Z,1.90
2022-09-06T20:17:29.666Z,2.08
2022-09-06T20:19:53.873Z,1.92
2022-09-06T20:22:23.616Z,1.80
2022-09-06T20:24:52.177Z,2.30
2022-09-06T20:27:21.200Z,2.00
2022-09-06T20:29:50.064Z,1.90
2022-09-06T20:32:18.429Z,2.15
2022-09-06T20:34:46.744Z,1.40
2022-09-06T20:37:16.453Z,1.63
2022-09-06T20:39:46.692Z,1.73
2022-09-06T20:42:15.674Z,2.20
2022-09-06T20:44:44.704Z,2.10
2022-09-06T20:47:13.198Z,1.80
2022-09-06T20:49:44.921Z,2.13
2022-09-06T20:52:16.926Z,1.60
2022-09-06T20:54:47.120Z,1.48
2022-09-06T20:57:15.777Z,1.88
2022-09-06T20:59:47.272Z,1.30
2022-09-06T21:02:16.029Z,1.30
2022-09-06T21:04:44.522Z,1.92
2022-09-06T21:07:13.011Z,1.88
2022-09-06T21:09:41.492Z,2.28
2022-09-06T21:12:11.233Z,1.90
2022-09-06T21:14:40.466Z,2.45
2022-09-06T21:17:09.338Z,2.17
2022-09-06T21:19:41.631Z,2.70
2022-09-06T21:22:11.306Z,2.50
2022-09-06T21:24:39.993Z,2.55
2022-09-06T21:27:13.337Z,2.55
2022-09-06T21:29:41.818Z,2.40
2022-09-06T21:32:10.226Z,3.10
2022-09-06T21:34:41.554Z,2.63
2022-09-06T21:37:21.460Z,2.90
2022-09-06T21:39:53.011Z,2.90
2022-09-06T21:42:22.860Z,2.65
2022-09-06T21:44:51.160Z,2.60
2022-09-06T21:47:19.605Z,3.03
2022-09-06T21:49:48.009Z,2.50
2022-09-06T21:52:18.853Z,2.90
2022-09-06T21:54:47.343Z,2.88
2022-09-06T21:57:15.634Z,2.45
2022-09-06T21:59:45.431Z,2.88
2022-09-06T22:02:19.990Z,2.50
2022-09-06T22:04:50.353Z,2.60
2022-09-06T22:07:18.814Z,3.15
2022-09-06T22:09:48.586Z,2.50
2022-09-06T22:12:16.916Z,2.67
2022-09-06T22:14:47.287Z,2.45
2022-09-06T22:17:15.820Z,2.65
2022-09-06T22:19:44.147Z,2.30
2022-09-06T22:22:12.428Z,2.47
2022-09-06T22:24:40.646Z,3.17
2022-09-06T22:27:09.174Z,2.67
2022-09-06T22:29:37.653Z,2.17
2022-09-06T22:32:07.375Z,2.47
2022-09-06T22:34:35.558Z,3.25
2022-09-06T22:37:03.890Z,2.10
2022-09-06T22:39:32.191Z,2.00
2022-09-06T22:42:01.334Z,2.33
2022-09-06T22:44:30.114Z,1.65
2022-09-06T22:46:58.700Z,2.15
2022-09-06T22:49:28.466Z,1.83
2022-09-06T22:51:57.310Z,1.90
2022-09-06T22:54:25.674Z,1.40
2022-09-06T22:56:54.033Z,1.63
2022-09-06T22:59:22.416Z,1.65
2022-09-06T23:01:50.828Z,1.77
2022-09-06T23:04:19.277Z,1.50
2022-09-06T23:06:49.141Z,1.27
2022-09-06T23:09:17.454Z,1.60
2022-09-06T23:11:45.685Z,1.73
2022-09-06T23:14:14.273Z,1.23
2022-09-06T23:16:42.608Z,1.60
2022-09-06T23:19:11.481Z,1.55
2022-09-06T23:21:39.797Z,1.20
2022-09-06T23:24:09.520Z,1.83
2022-09-06T23:26:38.028Z,1.30
2022-09-06T23:29:06.335Z,1.35
2022-09-06T23:31:35.087Z,1.85
2022-09-06T23:34:04.165Z,1.63
2022-09-06T23:36:33.189Z,1.95
2022-09-06T23:39:02.527Z,1.70
2022-09-06T23:41:32.196Z,1.95
2022-09-06T23:44:00.901Z,1.40
2022-09-06T23:46:29.471Z,1.95
2022-09-06T23:48:57.834Z,2.70
2022-09-06T23:51:26.150Z,2.55
2022-09-06T23:53:54.554Z,2.00
2022-09-06T23:56:22.961Z,1.63
2022-09-06T23:58:52.575Z,1.73
